Terminal Aerodrome Forecast
Issued by NWS Shreveport, LA

Home | Current Version | Previous Version | Text Only | Print | Product List | Glossary On
Versions: 1 2 3 4 5 6 7 8 9 10 11 12 13 14 15 16 17 18 19 20 21 22 23 24 25 26 27 28 29 30 31 32 33 34 35 36 37
000
FTUS44 KSHV 250112 AAB
TAFSHV
TAF AMD
KSHV 250112Z 2501/2524 35009KT P6SM -RA VCTS FEW007 BKN023 OVC030CB
      TEMPO 2501/2503 2SM -TSRA BR OVC010CB
     FM250300 30010KT 5SM BR VCSH OVC010
     FM250400 32008KT P6SM BKN050 BKN150
     FM250800 35005KT P6SM BKN200
     FM251500 08008KT P6SM BKN200
     FM252100 11007KT 6SM -SHRA OVC100=

USA.gov is the U.S. government's official web portal to all federal, state and local government web resources and services.